Arcadia, Oklahoma
Current Conditions -  °F | °C
As of 10:53 PM on Sunday 23 Nov 2014 (Local Time) from KGOK Reporting Station
Clear Clear  
Wind Chill: 38°   Ceiling: Unl
Heat Index: 43°   Visibility: 10mi
Dew Point: 35°   Wind: 9mph
Humidity: 74%   Direction: 300°WNW
Pressure: 29.74"   Gusts: NA
Location:  35.67°N, 97.33°W
Report Text: KGOK 240453Z AUTO 30008KT 10SM CLR 06/02 A2974 RMK AO2 SLP070 T00610017 PNO $
Loading
Personal Weather Stations






























Interactive Weather Map New forecast layout! Learn more

10-Day Weather Forecast

Advertisements
Track Severe Weather on mobile